createdAt,value
2023-03-06T00:00:13.296Z,100358.63
2023-03-06T00:02:41.570Z,100361.56
2023-03-06T00:05:09.561Z,100354.47
2023-03-06T00:07:37.500Z,100350.72
2023-03-06T00:10:07.332Z,100350.72
2023-03-06T00:12:35.526Z,100348.22
2023-03-06T00:15:05.628Z,100349.88
2023-03-06T00:17:33.721Z,100342.78
2023-03-06T00:20:01.657Z,100341.72
2023-03-06T00:22:29.963Z,100333.81
2023-03-06T00:24:58.074Z,100335.47
2023-03-06T00:27:27.400Z,100337.56
2023-03-06T00:29:58.346Z,100337.56
2023-03-06T00:32:26.820Z,100329.44
2023-03-06T00:34:54.995Z,100333.22
2023-03-06T00:37:23.270Z,100326.72
2023-03-06T00:39:51.190Z,100324.84
2023-03-06T00:42:19.715Z,100317.78
2023-03-06T00:44:49.072Z,100315.06
2023-03-06T00:47:17.332Z,100315.84
2023-03-06T00:49:45.559Z,100307.72
2023-03-06T00:52:13.814Z,100310.44
2023-03-06T00:54:41.733Z,100299.56
2023-03-06T00:57:09.701Z,100303.13
2023-03-06T00:59:37.674Z,100303.13
2023-03-06T01:02:07.331Z,100290.63
2023-03-06T01:04:35.265Z,100293.56
2023-03-06T01:07:03.307Z,100293.56
2023-03-06T01:09:31.227Z,100288.97
2023-03-06T01:11:59.437Z,100282.72
2023-03-06T01:14:27.412Z,100275.63
2023-03-06T01:16:55.324Z,100278.31
2023-03-06T01:19:24.632Z,100275.41
2023-03-06T01:21:52.866Z,100275.63
2023-03-06T01:24:20.784Z,100278.31
2023-03-06T01:26:48.711Z,100265.59
2023-03-06T01:29:16.741Z,100271.00
2023-03-06T01:31:44.997Z,100262.88
2023-03-06T01:34:12.979Z,100260.38
2023-03-06T01:36:42.321Z,100262.88
2023-03-06T01:39:10.279Z,100254.94
2023-03-06T01:41:38.480Z,100249.78
2023-03-06T01:44:06.515Z,100247.84
2023-03-06T01:46:38.733Z,100251.41
2023-03-06T01:49:08.932Z,100247.84
2023-03-06T01:51:38.776Z,100246.81
2023-03-06T01:54:09.593Z,100245.16
2023-03-06T01:56:37.505Z,100241.38
2023-03-06T01:59:05.443Z,100241.63
2023-03-06T02:01:33.690Z,100238.09
2023-03-06T02:04:02.142Z,100236.19
2023-03-06T02:06:30.098Z,100225.56
2023-03-06T02:08:58.029Z,100234.53
2023-03-06T02:11:27.701Z,100219.91
2023-03-06T02:13:55.649Z,100219.91
2023-03-06T02:16:25.555Z,100220.13
2023-03-06T02:18:53.515Z,100221.81
2023-03-06T02:21:23.275Z,100215.75
2023-03-06T02:24:03.262Z,100205.59
2023-03-06T02:26:32.630Z,100213.88
2023-03-06T02:29:00.550Z,100205.75
2023-03-06T02:31:29.920Z,100201.34
2023-03-06T02:34:09.668Z,100207.63
2023-03-06T02:36:39.156Z,100186.44
2023-03-06T02:39:07.454Z,100205.97
2023-03-06T02:41:37.052Z,100191.56
2023-03-06T02:44:04.981Z,100195.09
2023-03-06T02:46:32.912Z,100195.09
2023-03-06T02:49:00.862Z,100188.84
2023-03-06T02:51:29.096Z,100184.25
2023-03-06T02:53:57.000Z,100179.06
2023-03-06T02:56:24.890Z,100183.41
2023-03-06T02:58:54.241Z,100188.84
2023-03-06T03:01:23.018Z,100176.34
2023-03-06T03:03:51.052Z,100181.53
2023-03-06T03:06:18.988Z,100180.69
2023-03-06T03:08:46.923Z,100180.56
2023-03-06T03:11:15.121Z,100170.09
2023-03-06T03:13:43.070Z,100174.44
2023-03-06T03:16:14.005Z,100171.97
2023-03-06T03:18:42.084Z,100173.88
2023-03-06T03:21:11.057Z,100178.25
2023-03-06T03:23:38.984Z,100176.34
2023-03-06T03:26:07.990Z,100175.53
2023-03-06T03:28:35.943Z,100169.25
2023-03-06T03:31:04.767Z,100168.66
2023-03-06T03:33:34.126Z,100165.72
2023-03-06T03:36:02.287Z,100171.97
2023-03-06T03:38:30.376Z,100163.84
2023-03-06T03:40:58.565Z,100159.47
2023-03-06T03:43:26.498Z,100154.88
2023-03-06T03:45:54.445Z,100153.00
2023-03-06T03:48:22.441Z,100162.78
2023-03-06T03:50:52.067Z,100152.16
2023-03-06T03:53:19.982Z,100158.41
2023-03-06T03:55:48.278Z,100154.03
2023-03-06T03:58:16.241Z,100142.34
2023-03-06T04:00:44.409Z,100144.84
2023-03-06T04:03:12.381Z,100139.41
2023-03-06T04:05:40.301Z,100134.00
2023-03-06T04:08:09.623Z,100124.19
2023-03-06T04:10:39.403Z,100126.91
2023-03-06T04:13:09.921Z,100118.75
2023-03-06T04:15:38.074Z,100116.28
2023-03-06T04:18:06.407Z,100113.78
2023-03-06T04:20:35.202Z,100112.16
2023-03-06T04:23:03.139Z,100107.91
2023-03-06T04:25:32.461Z,100110.41
2023-03-06T04:28:00.438Z,100104.16
2023-03-06T04:30:28.365Z,100104.16
2023-03-06T04:32:56.279Z,100106.84
2023-03-06T04:35:24.248Z,100095.63
2023-03-06T04:37:52.248Z,100093.28
2023-03-06T04:40:21.542Z,100091.41
2023-03-06T04:42:51.217Z,100090.59
2023-03-06T04:45:19.167Z,100081.81
2023-03-06T04:47:47.082Z,100084.31
2023-03-06T04:50:15.064Z,100084.31
2023-03-06T04:52:43.253Z,100068.03
2023-03-06T04:55:11.959Z,100074.31
2023-03-06T04:57:40.157Z,100074.31
2023-03-06T05:00:14.462Z,100074.88
2023-03-06T05:02:43.421Z,100080.56
2023-03-06T05:05:11.916Z,100076.75
2023-03-06T05:07:39.832Z,100085.16
2023-03-06T05:10:08.647Z,100075.97
2023-03-06T05:12:37.394Z,100085.97
2023-03-06T05:15:07.792Z,100083.28
2023-03-06T05:17:37.162Z,100078.69
2023-03-06T05:20:06.251Z,100084.09
2023-03-06T05:22:34.550Z,100074.03
2023-03-06T05:25:03.124Z,100075.97
2023-03-06T05:27:31.058Z,100074.03
2023-03-06T05:29:59.050Z,100077.59
2023-03-06T05:32:27.123Z,100080.56
2023-03-06T05:34:56.594Z,100078.19
2023-03-06T05:37:24.571Z,100073.00
2023-03-06T05:39:52.931Z,100072.16
2023-03-06T05:42:21.152Z,100077.38
2023-03-06T05:44:49.110Z,100077.97
2023-03-06T05:47:17.238Z,100078.19
2023-03-06T05:49:45.166Z,100073.81
2023-03-06T05:52:14.941Z,100081.97
2023-03-06T05:54:43.110Z,100074.88
2023-03-06T05:57:11.087Z,100084.25
2023-03-06T05:59:39.061Z,100067.13
2023-03-06T06:02:08.071Z,100073.38
2023-03-06T06:04:35.994Z,100069.59
2023-03-06T06:07:05.931Z,100066.28
2023-03-06T06:09:35.403Z,100063.59
2023-03-06T06:12:03.760Z,100066.88
2023-03-06T06:14:31.855Z,100068.75
2023-03-06T06:16:59.832Z,100067.72
2023-03-06T06:19:29.998Z,100063.94
2023-03-06T06:21:58.638Z,100064.78
2023-03-06T06:24:27.059Z,100058.50
2023-03-06T06:26:57.081Z,100063.72
2023-03-06T06:29:25.095Z,100061.84
2023-03-06T06:31:53.206Z,100063.72
2023-03-06T06:34:21.150Z,100064.56
2023-03-06T06:36:50.994Z,100063.94
2023-03-06T06:39:20.484Z,100056.03
2023-03-06T06:42:05.525Z,100069.97
2023-03-06T06:44:39.243Z,100068.31
2023-03-06T06:47:25.151Z,100066.44
2023-03-06T06:49:53.857Z,100065.59
2023-03-06T06:52:22.335Z,100062.88
2023-03-06T06:54:50.235Z,100062.28
2023-03-06T06:57:18.180Z,100067.25
2023-03-06T06:59:47.553Z,100071.59
2023-03-06T07:02:16.649Z,100068.09
2023-03-06T07:05:02.054Z,100067.00
2023-03-06T07:07:32.138Z,100055.53
2023-03-06T07:10:00.081Z,100074.31
2023-03-06T07:12:28.481Z,100076.44
2023-03-06T07:14:57.944Z,100089.81
2023-03-06T07:17:25.869Z,100093.56
2023-03-06T07:19:53.792Z,100088.13
2023-03-06T07:22:22.037Z,100078.94
2023-03-06T07:24:50.268Z,100087.09
2023-03-06T07:27:18.217Z,100087.88
2023-03-06T07:29:46.224Z,100093.31
2023-03-06T07:32:16.040Z,100087.09
2023-03-06T07:34:44.700Z,100082.47
2023-03-06T07:37:12.671Z,100081.66
2023-03-06T07:39:40.593Z,100086.25
2023-03-06T07:42:09.129Z,100075.63
2023-03-06T07:44:37.648Z,100094.41
2023-03-06T07:47:05.698Z,100082.47
2023-03-06T07:49:35.236Z,100077.28
2023-03-06T07:52:03.641Z,100088.13
2023-03-06T07:54:32.701Z,100084.59
2023-03-06T07:57:00.695Z,100082.09
2023-03-06T07:59:28.649Z,100088.13
2023-03-06T08:01:57.461Z,100086.47
2023-03-06T08:04:25.368Z,100090.84
2023-03-06T08:06:57.543Z,100083.75
2023-03-06T08:09:25.476Z,100086.47
2023-03-06T08:11:53.914Z,100090.03
2023-03-06T08:14:21.925Z,100088.38
2023-03-06T08:16:51.242Z,100088.38
2023-03-06T08:19:19.195Z,100094.63
2023-03-06T08:21:47.544Z,100090.03
2023-03-06T08:24:18.545Z,100089.81
2023-03-06T08:26:46.476Z,100080.84
2023-03-06T08:29:15.636Z,100077.28
2023-03-06T08:31:44.309Z,100088.13
2023-03-06T08:34:13.128Z,100074.56
2023-03-06T08:36:41.095Z,100071.03
2023-03-06T08:39:09.012Z,100075.63
2023-03-06T08:41:38.951Z,100074.56
2023-03-06T08:44:06.825Z,100075.41
2023-03-06T08:46:34.965Z,100078.13
2023-03-06T08:49:02.911Z,100078.13
2023-03-06T08:51:31.282Z,100079.16
2023-03-06T08:53:59.394Z,100076.44
2023-03-06T08:56:28.380Z,100065.81
2023-03-06T08:58:58.297Z,100074.56
2023-03-06T09:01:27.369Z,100074.56
2023-03-06T09:03:55.488Z,100075.41
2023-03-06T09:06:23.500Z,100078.94
2023-03-06T09:08:52.098Z,100079.16
2023-03-06T09:11:20.693Z,100073.75
2023-03-06T09:13:48.623Z,100073.75
2023-03-06T09:16:17.995Z,100071.25
2023-03-06T09:18:45.918Z,100067.72
2023-03-06T09:21:14.364Z,100069.38
2023-03-06T09:23:42.275Z,100075.63
2023-03-06T09:26:10.191Z,100072.31
2023-03-06T09:28:40.047Z,100072.06
2023-03-06T09:31:11.604Z,100083.75
2023-03-06T09:33:41.058Z,100079.16
2023-03-06T09:36:09.462Z,100061.31
2023-03-06T09:38:37.347Z,100084.59
2023-03-06T09:41:11.507Z,100082.94
2023-03-06T09:43:40.297Z,100075.63
2023-03-06T09:46:13.620Z,99971.09
2023-03-06T09:48:47.556Z,100072.06
2023-03-06T09:51:16.743Z,100073.75
2023-03-06T09:53:59.023Z,100072.69
2023-03-06T09:56:31.107Z,100072.69
2023-03-06T09:59:02.239Z,100075.41
2023-03-06T10:01:31.494Z,100073.75
2023-03-06T10:04:06.364Z,100070.81
2023-03-06T10:06:35.572Z,100076.22
2023-03-06T10:09:04.764Z,100064.16
2023-03-06T10:11:35.246Z,100069.97
2023-03-06T10:14:13.272Z,100074.56
2023-03-06T10:16:41.205Z,100071.25
2023-03-06T10:19:13.459Z,100068.31
2023-03-06T10:21:45.391Z,100078.94
2023-03-06T10:24:28.138Z,100078.13
2023-03-06T10:26:59.023Z,100073.75
2023-03-06T10:29:35.872Z,100076.44
2023-03-06T10:32:09.851Z,100076.44
2023-03-06T10:34:39.664Z,100075.63
2023-03-06T10:37:14.109Z,100075.63
2023-03-06T10:39:42.018Z,100072.06
2023-03-06T10:42:10.276Z,100078.34
2023-03-06T10:44:38.173Z,100075.63
2023-03-06T10:47:27.097Z,100082.81
2023-03-06T10:49:59.836Z,100088.59
2023-03-06T10:52:30.552Z,100084.81
2023-03-06T10:55:23.749Z,100085.03
2023-03-06T10:57:51.743Z,100092.13
2023-03-06T11:00:31.137Z,100090.25
2023-03-06T11:03:17.505Z,100083.16
2023-03-06T11:06:14.090Z,100082.31
2023-03-06T11:08:42.341Z,100084.25
2023-03-06T11:11:12.369Z,100081.53
2023-03-06T11:13:41.608Z,100075.28
2023-03-06T11:16:18.669Z,100093.19
2023-03-06T11:18:56.914Z,100082.56
2023-03-06T11:21:31.499Z,100086.69
2023-03-06T11:24:04.078Z,100088.38
2023-03-06T11:26:35.276Z,100051.84
2023-03-06T11:29:09.829Z,100082.47
2023-03-06T11:31:38.866Z,100083.06
2023-03-06T11:34:09.579Z,100084.72
2023-03-06T11:36:41.320Z,100071.78
2023-03-06T11:39:17.707Z,100078.81
2023-03-06T11:41:48.930Z,100076.38
2023-03-06T11:44:19.924Z,100072.56
2023-03-06T11:46:49.424Z,100038.63
2023-03-06T11:49:20.383Z,100053.31
2023-03-06T11:51:52.415Z,100065.25
2023-03-06T11:54:20.315Z,100064.22
2023-03-06T11:56:52.970Z,100069.41
2023-03-06T11:59:41.015Z,100056.91
2023-03-06T12:02:19.426Z,100062.09
2023-03-06T12:04:50.956Z,100065.66
2023-03-06T12:07:30.406Z,100053.69
2023-03-06T12:12:50.878Z,100056.19
2023-03-06T12:15:25.837Z,100067.28
2023-03-06T12:18:04.584Z,100056.19
2023-03-06T12:20:47.825Z,100051.59
2023-03-06T12:23:30.066Z,100053.69
2023-03-06T12:26:00.574Z,100055.38
2023-03-06T12:28:35.410Z,100056.19
2023-03-06T12:31:18.834Z,100051.81
2023-03-06T12:33:51.225Z,100047.22
2023-03-06T12:36:28.832Z,100045.34
2023-03-06T12:39:10.556Z,100038.03
2023-03-06T12:41:48.504Z,100037.28
2023-03-06T12:44:41.528Z,100038.03
2023-03-06T12:47:11.147Z,100006.22
2023-03-06T12:49:40.425Z,100036.38
2023-03-06T12:52:09.778Z,100037.19
2023-03-06T12:54:40.212Z,100032.59
2023-03-06T12:57:09.345Z,100030.09
2023-03-06T12:59:44.676Z,100031.75
2023-03-06T13:02:40.349Z,100029.28
2023-03-06T13:05:34.514Z,100050.75
2023-03-06T13:08:19.877Z,100032.00
2023-03-06T13:10:50.634Z,100021.25
2023-03-06T13:13:31.905Z,100025.75
2023-03-06T13:16:11.215Z,100020.34
2023-03-06T13:18:59.291Z,100018.66
2023-03-06T13:22:00.458Z,100011.38
2023-03-06T13:24:28.476Z,100020.34
2023-03-06T13:27:05.869Z,100009.69
2023-03-06T13:30:18.396Z,100006.16
2023-03-06T13:32:46.313Z,100011.59
2023-03-06T13:35:52.659Z,100005.09
2023-03-06T13:38:37.658Z,100004.28
2023-03-06T13:41:38.247Z,99997.78
2023-03-06T13:44:41.430Z,99986.31
2023-03-06T13:47:20.786Z,99992.81
2023-03-06T13:49:48.768Z,99996.34
2023-03-06T13:52:20.692Z,99997.19
2023-03-06T13:54:52.253Z,99995.91
2023-03-06T13:57:35.321Z,99960.47
2023-03-06T14:00:21.874Z,99970.63
2023-03-06T14:03:11.155Z,99989.03
2023-03-06T14:05:43.369Z,99990.69
2023-03-06T14:08:12.177Z,99986.94
2023-03-06T14:10:40.331Z,99997.19
2023-03-06T14:13:09.087Z,99993.41
2023-03-06T14:15:43.071Z,99986.94
2023-03-06T14:18:17.096Z,99982.56
2023-03-06T14:20:45.829Z,99985.28
2023-03-06T14:23:30.504Z,99980.41
2023-03-06T14:26:01.077Z,99979.38
2023-03-06T14:28:29.808Z,99981.50
2023-03-06T14:31:00.457Z,99883.25
2023-03-06T14:33:41.122Z,99975.00
2023-03-06T14:36:12.403Z,99970.03
2023-03-06T14:38:46.898Z,99963.44
2023-03-06T14:41:14.847Z,99966.28
2023-03-06T14:43:42.789Z,99972.53
2023-03-06T14:46:19.886Z,99964.00
2023-03-06T14:48:48.326Z,99967.69
2023-03-06T14:51:18.067Z,99969.56
2023-03-06T14:53:46.369Z,99966.06
2023-03-06T14:56:16.731Z,99959.78
2023-03-06T14:58:49.504Z,99957.91
2023-03-06T15:01:22.608Z,99947.06
2023-03-06T15:03:51.248Z,99923.31
2023-03-06T15:06:20.256Z,99947.63
2023-03-06T15:08:49.349Z,99943.25
2023-03-06T15:11:17.268Z,99935.38
2023-03-06T15:13:54.438Z,99948.22
2023-03-06T15:16:30.120Z,99944.69
2023-03-06T15:18:58.963Z,99943.03
2023-03-06T15:21:27.524Z,99935.09
2023-03-06T15:23:56.097Z,99923.31
2023-03-06T15:26:29.020Z,99928.84
2023-03-06T15:29:08.278Z,99935.38
2023-03-06T15:31:38.856Z,99929.94
2023-03-06T15:34:26.245Z,99930.50
2023-03-06T15:36:55.403Z,99932.16
2023-03-06T15:39:30.958Z,99930.28
2023-03-06T15:41:59.325Z,99892.50
2023-03-06T15:44:27.274Z,99928.84
2023-03-06T15:47:07.731Z,99931.00
2023-03-06T15:49:37.155Z,99935.38
2023-03-06T15:52:05.554Z,99923.91
2023-03-06T15:54:33.435Z,99928.06
2023-03-06T15:57:01.344Z,99922.84
2023-03-06T15:59:31.347Z,99928.84
2023-03-06T16:02:01.407Z,99925.34
2023-03-06T16:04:29.454Z,99917.41
2023-03-06T16:06:57.427Z,99915.75
2023-03-06T16:09:25.358Z,99911.75
2023-03-06T16:11:53.547Z,99907.13
2023-03-06T16:14:23.699Z,99903.63
2023-03-06T16:16:52.258Z,99897.09
2023-03-06T16:19:26.844Z,99895.47
2023-03-06T16:21:55.747Z,99890.84
2023-03-06T16:24:24.814Z,99887.56
2023-03-06T16:26:53.360Z,99878.59
2023-03-06T16:29:22.597Z,99886.50
2023-03-06T16:31:51.043Z,99885.69
2023-03-06T16:34:19.738Z,99888.13
2023-03-06T16:36:49.252Z,99885.41
2023-03-06T16:39:17.604Z,99884.63
2023-03-06T16:41:46.315Z,99879.44
2023-03-06T16:44:14.300Z,99882.97
2023-03-06T16:46:45.308Z,99878.38
2023-03-06T16:49:15.696Z,99879.44
2023-03-06T16:51:43.897Z,99881.91
2023-03-06T16:54:13.244Z,99880.81
2023-03-06T16:56:41.247Z,99883.53
2023-03-06T16:59:09.230Z,99871.06
2023-03-06T17:01:37.561Z,99876.47
2023-03-06T17:04:05.616Z,99873.78
2023-03-06T17:06:33.505Z,99872.94
2023-03-06T17:09:01.446Z,99866.09
2023-03-06T17:11:31.141Z,99860.44
2023-03-06T17:13:59.149Z,99864.78
2023-03-06T17:16:27.090Z,99861.25
2023-03-06T17:18:56.094Z,99860.44
2023-03-06T17:21:26.563Z,99855.00
2023-03-06T17:23:54.484Z,99867.25
2023-03-06T17:26:22.459Z,99854.78
2023-03-06T17:28:51.736Z,99847.91
2023-03-06T17:31:20.918Z,99857.47
2023-03-06T17:33:48.881Z,99850.41
2023-03-06T17:36:17.155Z,99849.34
2023-03-06T17:38:45.073Z,99846.63
2023-03-06T17:41:14.223Z,99857.47
2023-03-06T17:43:42.158Z,99854.78
2023-03-06T17:46:12.258Z,99852.06
2023-03-06T17:48:40.864Z,99844.97
2023-03-06T17:51:09.307Z,99847.41
2023-03-06T17:53:37.612Z,99843.91
2023-03-06T17:56:05.957Z,99853.69
2023-03-06T17:58:34.184Z,99852.84
2023-03-06T18:01:02.071Z,99848.50
2023-03-06T18:03:31.506Z,99850.97
2023-03-06T18:06:00.477Z,99848.25
2023-03-06T18:08:28.461Z,99843.66
2023-03-06T18:11:00.399Z,99841.19
2023-03-06T18:13:28.303Z,99838.47
2023-03-06T18:15:56.419Z,99839.28
2023-03-06T18:18:24.514Z,99845.78
2023-03-06T18:20:54.101Z,99841.19
2023-03-06T18:23:22.397Z,99840.59
2023-03-06T18:25:50.407Z,99841.44
2023-03-06T18:28:18.417Z,99833.06
2023-03-06T18:30:46.586Z,99833.06
2023-03-06T18:33:14.529Z,99833.84
2023-03-06T18:35:44.066Z,99831.13
2023-03-06T18:38:13.535Z,99827.84
2023-03-06T18:40:42.575Z,99829.50
2023-03-06T18:43:10.452Z,99824.09
2023-03-06T18:45:38.463Z,99821.38
2023-03-06T18:48:06.818Z,99815.34
2023-03-06T18:50:35.944Z,99809.44
2023-03-06T18:53:03.984Z,99817.34
2023-03-06T18:55:34.193Z,99811.09
2023-03-06T18:58:02.060Z,99814.84
2023-03-06T19:00:30.072Z,99809.44
2023-03-06T19:02:58.263Z,99812.97
2023-03-06T19:05:26.197Z,99804.81
2023-03-06T19:07:54.098Z,99807.53
2023-03-06T19:10:22.578Z,99802.13
2023-03-06T19:12:52.128Z,99801.28
2023-03-06T19:15:20.236Z,99797.78
2023-03-06T19:17:51.472Z,99793.41
2023-03-06T19:20:19.627Z,99789.63
2023-03-06T19:22:47.803Z,99789.63
2023-03-06T19:25:16.216Z,99782.56
2023-03-06T19:27:45.952Z,99772.16
2023-03-06T19:30:16.511Z,99773.56
2023-03-06T19:32:45.735Z,99781.50
2023-03-06T19:35:13.764Z,99774.16
2023-03-06T19:37:41.786Z,99769.81
2023-03-06T19:40:11.105Z,99766.50
2023-03-06T19:42:39.320Z,99768.16
2023-03-06T19:45:10.140Z,99769.22
2023-03-06T19:47:39.499Z,99768.16
2023-03-06T19:50:08.454Z,99764.84
2023-03-06T19:52:38.400Z,99768.16
2023-03-06T19:55:08.545Z,99767.09
2023-03-06T19:57:36.437Z,99761.41
2023-03-06T20:00:04.726Z,99747.25
2023-03-06T20:02:32.638Z,99753.25
2023-03-06T20:05:01.948Z,99753.25
2023-03-06T20:07:29.842Z,99749.72
2023-03-06T20:10:00.707Z,99738.06
2023-03-06T20:12:28.887Z,99740.78
2023-03-06T20:14:56.825Z,99732.63
2023-03-06T20:17:24.771Z,99736.41
2023-03-06T20:19:52.753Z,99726.38
2023-03-06T20:22:22.341Z,99728.00
2023-03-06T20:24:50.208Z,99731.53
2023-03-06T20:27:18.101Z,99723.41
2023-03-06T20:29:46.045Z,99719.88
2023-03-06T20:32:14.282Z,99719.63
2023-03-06T20:34:42.328Z,99715.03
2023-03-06T20:37:10.450Z,99712.31
2023-03-06T20:39:39.708Z,99706.88
2023-03-06T20:42:08.034Z,99702.28
2023-03-06T20:44:36.228Z,99703.13
2023-03-06T20:47:04.113Z,99703.13
2023-03-06T20:49:32.042Z,99700.63
2023-03-06T20:52:00.239Z,99698.97
2023-03-06T20:54:28.174Z,99697.09
2023-03-06T20:56:57.546Z,99695.22
2023-03-06T20:59:25.477Z,99689.22
2023-03-06T21:01:53.652Z,99694.03
2023-03-06T21:04:21.572Z,99685.06
2023-03-06T21:06:49.493Z,99687.56
2023-03-06T21:09:17.653Z,99688.84
2023-03-06T21:11:46.097Z,99689.44
2023-03-06T21:14:15.469Z,99678.81
2023-03-06T21:16:43.527Z,99683.78
2023-03-06T21:19:11.531Z,99674.81
2023-03-06T21:21:39.784Z,99676.09
2023-03-06T21:24:07.957Z,99670.44
2023-03-06T21:26:35.856Z,99666.06
2023-03-06T21:29:03.843Z,99663.38
2023-03-06T21:31:35.906Z,99655.22
2023-03-06T21:34:05.215Z,99654.41
2023-03-06T21:36:33.451Z,99651.69
2023-03-06T21:39:01.415Z,99642.72
2023-03-06T21:41:30.450Z,99646.25
2023-03-06T21:43:58.945Z,99640.50
2023-03-06T21:46:26.897Z,99638.34
2023-03-06T21:48:56.251Z,99639.19
2023-03-06T21:51:24.545Z,99625.88
2023-03-06T21:53:52.778Z,99623.97
2023-03-06T21:56:21.805Z,99622.06
2023-03-06T21:58:49.780Z,99620.44
2023-03-06T22:01:19.414Z,99614.19
2023-03-06T22:03:47.502Z,99605.00
2023-03-06T22:06:17.448Z,99602.28
2023-03-06T22:08:45.363Z,99600.63
2023-03-06T22:11:15.049Z,99596.25
2023-03-06T22:13:43.042Z,99601.44
2023-03-06T22:16:10.937Z,99594.38
2023-03-06T22:18:38.999Z,99587.06
2023-03-06T22:21:10.413Z,99587.06
2023-03-06T22:23:40.345Z,99575.38
2023-03-06T22:26:11.210Z,99569.94
2023-03-06T22:28:39.280Z,99565.34
2023-03-06T22:31:07.862Z,99567.00
2023-03-06T22:33:35.788Z,99561.81
2023-03-06T22:36:06.177Z,99554.50
2023-03-06T22:38:34.355Z,99558.25
2023-03-06T22:41:04.001Z,99557.19
2023-03-06T22:43:32.025Z,99554.50
2023-03-06T22:46:02.152Z,99543.63
2023-03-06T22:48:30.143Z,99538.75
2023-03-06T22:51:02.291Z,99543.13
2023-03-06T22:53:30.209Z,99535.81
2023-03-06T22:55:59.051Z,99543.97
2023-03-06T22:58:34.427Z,99538.75
2023-03-06T23:01:06.504Z,99526.16
2023-03-06T23:03:34.484Z,99527.34
2023-03-06T23:06:02.378Z,99523.81
2023-03-06T23:08:30.281Z,99523.81
2023-03-06T23:10:58.501Z,99515.09
2023-03-06T23:13:26.453Z,99513.19
2023-03-06T23:15:55.945Z,99517.78
2023-03-06T23:18:23.891Z,99516.13
2023-03-06T23:20:52.048Z,99513.44
2023-03-06T23:23:19.964Z,99505.56
2023-03-06T23:25:48.917Z,99510.16
2023-03-06T23:28:17.410Z,99493.59
2023-03-06T23:30:45.802Z,99496.59
2023-03-06T23:33:15.177Z,99507.44
2023-03-06T23:35:44.137Z,99501.19
2023-03-06T23:38:12.150Z,99488.69
2023-03-06T23:40:40.353Z,99493.88
2023-03-06T23:43:08.237Z,99483.25
2023-03-06T23:45:36.603Z,99483.25
2023-03-06T23:48:06.385Z,99487.84
2023-03-06T23:50:35.658Z,99485.16
2023-03-06T23:53:03.565Z,99478.06
2023-03-06T23:55:31.537Z,99480.78
2023-03-06T23:57:59.516Z,99488.91
